createdAt,value
2022-08-19T00:00:27.596Z,92.71
2022-08-19T00:01:30.323Z,92.60
2022-08-19T00:02:27.657Z,92.85
2022-08-19T00:03:27.707Z,92.91
2022-08-19T00:04:27.787Z,92.85
2022-08-19T00:05:27.827Z,92.95
2022-08-19T00:06:27.889Z,93.15
2022-08-19T00:07:27.939Z,93.15
2022-08-19T00:08:27.988Z,93.05
2022-08-19T00:09:28.040Z,93.05
2022-08-19T00:10:28.101Z,93.35
2022-08-19T00:11:28.150Z,93.05
2022-08-19T00:12:28.201Z,93.35
2022-08-19T00:13:28.241Z,93.26
2022-08-19T00:14:28.290Z,93.05
2022-08-19T00:15:28.352Z,93.35
2022-08-19T00:16:28.404Z,93.46
2022-08-19T00:17:28.455Z,93.26
2022-08-19T00:18:28.504Z,93.46
2022-08-19T00:19:28.562Z,93.66
2022-08-19T00:20:28.603Z,93.40
2022-08-19T00:21:28.654Z,93.80
2022-08-19T00:22:28.694Z,94.00
2022-08-19T00:23:28.744Z,94.20
2022-08-19T00:24:28.804Z,94.20
2022-08-19T00:25:30.058Z,94.40
2022-08-19T00:26:28.895Z,94.31
2022-08-19T00:27:28.955Z,94.40
2022-08-19T00:28:29.005Z,94.71
2022-08-19T00:29:29.046Z,94.71
2022-08-19T00:30:29.098Z,94.71
2022-08-19T00:31:29.146Z,94.71
2022-08-19T00:32:29.207Z,94.71
2022-08-19T00:33:29.188Z,94.40
2022-08-19T00:34:29.238Z,94.71
2022-08-19T00:35:29.304Z,94.81
2022-08-19T00:36:29.348Z,94.81
2022-08-19T00:37:29.388Z,94.91
2022-08-19T00:38:37.339Z,94.91
2022-08-19T00:39:29.517Z,94.91
2022-08-19T00:40:29.500Z,94.91
2022-08-19T00:41:29.550Z,94.81
2022-08-19T00:42:29.592Z,94.71
2022-08-19T00:43:29.642Z,94.71
2022-08-19T00:44:29.701Z,94.40
2022-08-19T00:45:29.751Z,94.71
2022-08-19T00:46:29.803Z,94.71
2022-08-19T00:47:29.852Z,94.91
2022-08-19T00:48:29.903Z,94.75
2022-08-19T00:49:29.975Z,94.85
2022-08-19T00:50:29.942Z,94.95
2022-08-19T00:51:29.991Z,95.06
2022-08-19T00:52:30.043Z,94.95
2022-08-19T00:53:30.074Z,94.95
2022-08-19T00:54:31.223Z,95.06
2022-08-19T00:55:30.125Z,95.06
2022-08-19T00:56:30.175Z,95.26
2022-08-19T00:57:30.235Z,95.15
2022-08-19T00:58:30.276Z,95.26
2022-08-19T01:00:00.906Z,95.26
2022-08-19T01:00:30.346Z,95.46
2022-08-19T01:01:30.467Z,95.36
2022-08-19T01:02:30.464Z,95.36
2022-08-19T01:03:57.144Z,95.26
2022-08-19T01:04:30.458Z,95.56
2022-08-19T01:05:30.498Z,95.46
2022-08-19T01:06:30.539Z,95.66
2022-08-19T01:07:35.714Z,95.56
2022-08-19T01:08:30.629Z,95.36
2022-08-19T01:09:30.658Z,95.46
2022-08-19T01:10:34.757Z,95.46
2022-08-19T01:11:30.741Z,95.56
2022-08-19T01:12:30.781Z,95.56
2022-08-19T01:13:48.916Z,95.56
2022-08-19T01:14:30.903Z,95.46
2022-08-19T01:15:30.963Z,95.46
2022-08-19T01:16:31.012Z,95.46
2022-08-19T01:17:31.053Z,95.56
2022-08-19T01:18:31.092Z,95.66
2022-08-19T01:19:31.164Z,95.76
2022-08-19T01:20:31.203Z,95.56
2022-08-19T01:21:31.265Z,95.76
2022-08-19T01:22:33.709Z,95.86
2022-08-19T01:23:31.335Z,95.76
2022-08-19T01:24:31.376Z,95.76
2022-08-19T01:25:31.415Z,95.96
2022-08-19T01:26:31.515Z,96.01
2022-08-19T01:27:37.451Z,96.21
2022-08-19T01:28:33.952Z,96.41
2022-08-19T01:29:31.606Z,96.61
2022-08-19T01:30:31.637Z,96.71
2022-08-19T01:31:32.723Z,96.81
2022-08-19T01:32:33.590Z,96.92
2022-08-19T01:33:31.768Z,97.02
2022-08-19T01:34:31.808Z,97.02
2022-08-19T01:35:31.848Z,97.02
2022-08-19T01:36:31.899Z,97.12
2022-08-19T01:37:31.939Z,97.12
2022-08-19T01:38:31.969Z,97.32
2022-08-19T01:39:32.054Z,97.47
2022-08-19T01:40:32.052Z,97.36
2022-08-19T01:41:32.111Z,97.47
2022-08-19T01:42:32.173Z,97.56
2022-08-19T01:43:32.222Z,97.67
2022-08-19T01:44:32.272Z,97.56
2022-08-19T01:45:32.320Z,97.67
2022-08-19T01:46:32.365Z,97.77
2022-08-19T01:47:32.384Z,97.87
2022-08-19T01:48:32.425Z,97.97
2022-08-19T01:49:32.465Z,98.07
2022-08-19T01:50:32.478Z,98.17
2022-08-19T01:51:39.803Z,98.27
2022-08-19T01:52:32.584Z,98.32
2022-08-19T01:53:33.707Z,98.32
2022-08-19T01:54:32.601Z,98.32
2022-08-19T01:55:32.646Z,98.42
2022-08-19T01:56:32.696Z,98.52
2022-08-19T01:57:32.765Z,98.52
2022-08-19T01:58:32.837Z,98.42
2022-08-19T01:59:32.878Z,98.42
2022-08-19T02:00:32.928Z,98.42
2022-08-19T02:01:33.078Z,98.52
2022-08-19T02:02:32.997Z,98.57
2022-08-19T02:03:33.068Z,98.57
2022-08-19T02:04:33.109Z,98.77
2022-08-19T02:05:33.169Z,98.87
2022-08-19T02:06:33.222Z,98.97
2022-08-19T02:07:33.270Z,99.27
2022-08-19T02:08:33.330Z,99.27
2022-08-19T02:09:33.382Z,99.38
2022-08-19T02:10:33.429Z,99.48
2022-08-19T02:11:33.494Z,99.52
2022-08-19T02:12:33.541Z,99.62
2022-08-19T02:13:33.593Z,99.99
2022-08-19T02:14:33.653Z,99.99
2022-08-19T02:15:33.721Z,99.99
2022-08-19T02:16:33.772Z,99.99
2022-08-19T02:17:33.840Z,99.99
2022-08-19T02:18:33.883Z,99.99
2022-08-19T02:19:33.963Z,99.99
2022-08-19T02:20:33.934Z,99.99
2022-08-19T02:21:33.992Z,99.99
2022-08-19T02:22:34.047Z,99.99
2022-08-19T02:23:34.104Z,99.99
2022-08-19T02:24:34.166Z,99.93
2022-08-19T02:25:34.216Z,99.93
2022-08-19T02:26:34.275Z,99.99
2022-08-19T02:27:34.304Z,99.99
2022-08-19T02:28:34.347Z,99.99
2022-08-19T02:29:34.348Z,99.99
2022-08-19T02:30:34.335Z,99.99
2022-08-19T02:31:34.396Z,99.99
2022-08-19T02:32:34.459Z,99.99
2022-08-19T02:33:34.518Z,99.99
2022-08-19T02:34:34.540Z,99.99
2022-08-19T02:35:34.559Z,99.99
2022-08-19T02:36:34.629Z,99.99
2022-08-19T02:37:35.030Z,99.99
2022-08-19T02:38:34.660Z,99.99
2022-08-19T02:39:34.685Z,99.99
2022-08-19T02:40:34.710Z,99.99
2022-08-19T02:41:34.741Z,99.99
2022-08-19T02:42:34.772Z,99.99
2022-08-19T02:43:34.865Z,99.99
2022-08-19T02:44:34.891Z,99.99
2022-08-19T02:45:34.938Z,99.99
2022-08-19T02:46:34.962Z,99.99
2022-08-19T02:47:34.992Z,99.99
2022-08-19T02:48:35.033Z,99.99
2022-08-19T02:49:35.064Z,99.99
2022-08-19T02:50:35.094Z,99.99
2022-08-19T02:51:35.124Z,99.99
2022-08-19T02:52:35.144Z,99.99
2022-08-19T02:53:35.164Z,99.99
2022-08-19T02:54:35.215Z,99.99
2022-08-19T02:55:45.875Z,99.99
2022-08-19T02:56:35.287Z,99.99
2022-08-19T02:57:35.319Z,99.99
2022-08-19T02:58:35.344Z,99.99
2022-08-19T02:59:35.376Z,99.99
2022-08-19T03:00:35.440Z,99.99
2022-08-19T03:01:35.540Z,99.99
2022-08-19T03:02:35.527Z,99.99
2022-08-19T03:03:35.568Z,99.99
2022-08-19T03:04:35.600Z,99.99
2022-08-19T03:05:48.433Z,99.99
2022-08-19T03:06:35.691Z,99.99
2022-08-19T03:07:35.738Z,99.99
2022-08-19T03:08:35.771Z,99.99
2022-08-19T03:09:35.805Z,99.99
2022-08-19T03:10:35.830Z,99.99
2022-08-19T03:11:35.851Z,99.99
2022-08-19T03:12:35.890Z,99.99
2022-08-19T03:13:35.921Z,99.99
2022-08-19T03:14:35.951Z,99.99
2022-08-19T03:15:35.981Z,99.99
2022-08-19T03:16:36.019Z,99.99
2022-08-19T03:17:36.051Z,99.99
2022-08-19T03:18:36.082Z,99.99
2022-08-19T03:19:36.133Z,99.99
2022-08-19T03:20:36.153Z,99.99
2022-08-19T03:21:36.193Z,99.99
2022-08-19T03:22:36.237Z,99.99
2022-08-19T03:23:36.264Z,99.99
2022-08-19T03:24:36.293Z,99.99
2022-08-19T03:25:36.334Z,99.99
2022-08-19T03:26:36.365Z,99.99
2022-08-19T03:27:36.395Z,99.99
2022-08-19T03:28:36.440Z,99.99
2022-08-19T03:29:43.016Z,99.99
2022-08-19T03:30:36.506Z,99.99
2022-08-19T03:31:44.681Z,99.99
2022-08-19T03:32:36.606Z,99.99
2022-08-19T03:33:36.638Z,99.99
2022-08-19T03:34:36.681Z,99.99
2022-08-19T03:35:36.698Z,99.99
2022-08-19T03:36:36.728Z,99.99
2022-08-19T03:37:36.803Z,99.99
2022-08-19T03:38:36.819Z,99.99
2022-08-19T03:39:36.883Z,99.99
2022-08-19T03:40:36.901Z,99.99
2022-08-19T03:41:45.060Z,99.99
2022-08-19T03:42:48.675Z,99.99
2022-08-19T03:43:37.050Z,99.99
2022-08-19T03:44:37.090Z,99.99
2022-08-19T03:45:37.121Z,99.99
2022-08-19T03:46:37.141Z,99.99
2022-08-19T03:47:37.191Z,99.99
2022-08-19T03:48:37.212Z,99.99
2022-08-19T03:49:37.262Z,99.99
2022-08-19T03:50:37.233Z,99.99
2022-08-19T03:51:37.253Z,99.99
2022-08-19T03:52:37.306Z,99.99
2022-08-19T03:53:37.363Z,99.99
2022-08-19T03:54:37.416Z,99.99
2022-08-19T03:55:37.474Z,99.99
2022-08-19T03:56:37.515Z,99.99
2022-08-19T03:57:37.565Z,99.99
2022-08-19T03:58:37.615Z,99.99
2022-08-19T03:59:37.669Z,99.99
2022-08-19T04:00:37.706Z,99.99
2022-08-19T04:01:37.819Z,99.99
2022-08-19T04:02:37.748Z,99.99
2022-08-19T04:03:37.796Z,99.99
2022-08-19T04:04:37.848Z,99.99
2022-08-19T04:05:37.899Z,99.99
2022-08-19T04:06:39.708Z,99.99
2022-08-19T04:07:37.938Z,99.99
2022-08-19T04:08:38.006Z,99.99
2022-08-19T04:09:38.068Z,99.99
2022-08-19T04:10:38.100Z,99.99
2022-08-19T04:11:43.550Z,99.99
2022-08-19T04:12:38.139Z,99.99
2022-08-19T04:13:38.160Z,99.99
2022-08-19T04:14:38.199Z,99.99
2022-08-19T04:15:38.230Z,99.99
2022-08-19T04:16:38.256Z,99.99
2022-08-19T04:17:38.291Z,99.99
2022-08-19T04:18:38.261Z,99.99
2022-08-19T04:19:38.303Z,99.99
2022-08-19T04:20:38.332Z,99.99
2022-08-19T04:21:38.382Z,99.99
2022-08-19T04:22:38.432Z,99.99
2022-08-19T04:23:38.491Z,99.99
2022-08-19T04:24:38.553Z,99.99
2022-08-19T04:25:38.553Z,99.99
2022-08-19T04:26:38.555Z,99.99
2022-08-19T04:27:38.595Z,99.99
2022-08-19T04:28:38.623Z,99.99
2022-08-19T04:29:38.666Z,99.99
2022-08-19T04:30:38.725Z,99.99
2022-08-19T04:31:38.816Z,99.99
2022-08-19T04:32:38.804Z,99.99
2022-08-19T04:33:38.845Z,99.99
2022-08-19T04:35:01.197Z,99.99
2022-08-19T04:35:38.866Z,99.99
2022-08-19T04:36:38.863Z,99.99
2022-08-19T04:37:38.877Z,99.99
2022-08-19T04:38:38.937Z,99.99
2022-08-19T04:39:39.031Z,99.99
2022-08-19T04:40:39.028Z,99.99
2022-08-19T04:41:39.038Z,99.99
2022-08-19T04:42:39.048Z,99.99
2022-08-19T04:43:39.043Z,99.99
2022-08-19T04:44:46.176Z,99.99
2022-08-19T04:45:43.656Z,99.99
2022-08-19T04:46:50.964Z,99.99
2022-08-19T04:47:47.983Z,99.99
2022-08-19T04:48:43.462Z,99.99
2022-08-19T04:49:39.322Z,99.99
2022-08-19T04:50:39.333Z,99.99
2022-08-19T04:51:39.420Z,99.99
2022-08-19T04:52:39.402Z,99.99
2022-08-19T04:53:39.433Z,99.99
2022-08-19T04:54:40.066Z,99.99
2022-08-19T04:55:39.492Z,99.99
2022-08-19T04:56:39.543Z,99.99
2022-08-19T04:57:39.563Z,99.99
2022-08-19T04:58:39.623Z,99.99
2022-08-19T04:59:39.672Z,99.99
2022-08-19T05:00:39.657Z,99.99
2022-08-19T05:01:39.705Z,99.99
2022-08-19T05:02:39.764Z,99.99
2022-08-19T05:03:39.805Z,99.99
2022-08-19T05:04:39.835Z,99.99
2022-08-19T05:05:45.315Z,99.99
2022-08-19T05:06:39.906Z,99.99
2022-08-19T05:07:39.986Z,99.99
2022-08-19T05:08:40.045Z,99.99
2022-08-19T05:09:57.947Z,99.99
2022-08-19T05:10:40.078Z,99.99
2022-08-19T05:11:40.138Z,99.99
2022-08-19T05:12:40.178Z,99.99
2022-08-19T05:13:40.218Z,99.99
2022-08-19T05:14:40.289Z,99.99
2022-08-19T05:15:40.329Z,99.98
2022-08-19T05:16:40.340Z,99.78
2022-08-19T05:17:40.379Z,99.58
2022-08-19T05:18:40.433Z,99.18
2022-08-19T05:19:40.474Z,98.97
2022-08-19T05:20:40.511Z,98.93
2022-08-19T05:21:40.576Z,98.72
2022-08-19T05:22:40.624Z,98.42
2022-08-19T05:23:40.672Z,98.42
2022-08-19T05:24:56.440Z,98.32
2022-08-19T05:25:40.732Z,97.77
2022-08-19T05:26:40.784Z,97.32
2022-08-19T05:27:40.836Z,95.96
2022-08-19T05:28:40.904Z,94.81
2022-08-19T05:29:40.891Z,93.90
2022-08-19T05:30:47.266Z,92.95
2022-08-19T05:31:41.820Z,92.40
2022-08-19T05:32:40.945Z,91.35
2022-08-19T05:33:40.965Z,90.11
2022-08-19T05:34:40.967Z,89.06
2022-08-19T05:35:40.966Z,87.65
2022-08-19T05:36:40.979Z,87.21
2022-08-19T05:37:40.988Z,86.16
2022-08-19T05:38:41.019Z,85.86
2022-08-19T05:39:41.075Z,86.30
2022-08-19T05:40:41.042Z,86.66
2022-08-19T05:41:41.049Z,85.75
2022-08-19T05:42:41.100Z,86.40
2022-08-19T05:43:41.160Z,87.30
2022-08-19T05:44:41.242Z,87.41
2022-08-19T05:45:41.253Z,87.06
2022-08-19T05:46:41.303Z,86.36
2022-08-19T05:47:42.303Z,87.04
2022-08-19T05:48:41.372Z,88.39
2022-08-19T05:49:41.443Z,89.54
2022-08-19T05:50:41.472Z,89.80
2022-08-19T05:51:41.483Z,87.81
2022-08-19T05:52:43.727Z,87.21
2022-08-19T05:53:41.545Z,86.46
2022-08-19T05:54:41.604Z,86.36
2022-08-19T05:55:41.603Z,86.74
2022-08-19T05:56:41.577Z,87.55
2022-08-19T05:57:41.626Z,88.15
2022-08-19T05:58:41.677Z,87.75
2022-08-19T05:59:41.697Z,86.66
2022-08-19T06:00:41.729Z,85.86
2022-08-19T06:01:41.739Z,84.67
2022-08-19T06:02:41.860Z,83.33
2022-08-19T06:03:41.808Z,81.95
2022-08-19T06:04:41.820Z,82.05
2022-08-19T06:05:42.297Z,80.61
2022-08-19T06:06:41.880Z,80.00
2022-08-19T06:07:41.893Z,79.23
2022-08-19T06:08:41.901Z,78.29
2022-08-19T06:09:43.595Z,76.86
2022-08-19T06:10:41.962Z,76.72
2022-08-19T06:11:41.963Z,75.96
2022-08-19T06:12:41.953Z,76.29
2022-08-19T06:13:41.963Z,76.59
2022-08-19T06:14:42.054Z,77.33
2022-08-19T06:15:42.044Z,77.19
2022-08-19T06:16:42.073Z,77.33
2022-08-19T06:17:42.076Z,78.06
2022-08-19T06:18:42.141Z,78.36
2022-08-19T06:19:42.176Z,79.14
2022-08-19T06:20:55.506Z,80.44
2022-08-19T06:21:42.297Z,80.21
2022-08-19T06:22:42.355Z,78.73
2022-08-19T06:23:42.409Z,78.36
2022-08-19T06:24:42.459Z,78.47
2022-08-19T06:25:42.473Z,77.93
2022-08-19T06:26:42.568Z,77.09
2022-08-19T06:27:58.972Z,75.32
2022-08-19T06:28:42.522Z,74.19
2022-08-19T06:29:42.542Z,73.55
2022-08-19T06:30:42.601Z,71.85
2022-08-19T06:31:42.653Z,70.75
2022-08-19T06:32:43.087Z,71.39
2022-08-19T06:33:42.728Z,72.62
2022-08-19T06:34:42.784Z,72.22
2022-08-19T06:35:42.848Z,72.42
2022-08-19T06:36:42.883Z,71.98
2022-08-19T06:37:43.866Z,71.35
2022-08-19T06:38:42.927Z,70.42
2022-08-19T06:39:42.998Z,69.20
2022-08-19T06:41:47.624Z,70.92
2022-08-19T06:42:53.001Z,71.48
2022-08-19T06:43:43.026Z,71.02
2022-08-19T06:44:43.819Z,71.42
2022-08-19T06:45:43.111Z,70.92
2022-08-19T06:46:43.150Z,70.83
2022-08-19T06:47:43.209Z,71.32
2022-08-19T06:48:45.401Z,71.09
2022-08-19T06:49:43.252Z,71.66
2022-08-19T06:50:43.260Z,72.45
2022-08-19T06:51:43.526Z,72.05
2022-08-19T06:52:43.298Z,72.16
2022-08-19T06:53:43.331Z,71.72
2022-08-19T06:54:53.727Z,71.26
2022-08-19T06:55:43.403Z,71.09
2022-08-19T06:56:43.466Z,70.26
2022-08-19T06:57:43.438Z,69.82
2022-08-19T06:58:43.427Z,68.60
2022-08-19T06:59:43.458Z,69.02
2022-08-19T07:00:43.456Z,68.96
2022-08-19T07:01:43.457Z,69.59
2022-08-19T07:02:48.169Z,71.26
2022-08-19T07:03:43.509Z,71.12
2022-08-19T07:04:43.520Z,70.32
2022-08-19T07:05:45.977Z,70.72
2022-08-19T07:06:44.764Z,70.19
2022-08-19T07:07:43.661Z,69.99
2022-08-19T07:08:43.815Z,69.79
2022-08-19T07:09:43.695Z,70.69
2022-08-19T07:10:43.751Z,69.23
2022-08-19T07:11:43.764Z,68.40
2022-08-19T07:12:43.825Z,67.90
2022-08-19T07:13:43.845Z,67.14
2022-08-19T07:14:43.854Z,66.51
2022-08-19T07:15:43.864Z,66.11
2022-08-19T07:16:43.866Z,67.37
2022-08-19T07:17:43.876Z,67.60
2022-08-19T07:18:43.934Z,68.96
2022-08-19T07:19:43.896Z,69.06
2022-08-19T07:20:43.918Z,69.43
2022-08-19T07:21:43.927Z,67.67
2022-08-19T07:22:43.938Z,66.35
2022-08-19T07:23:43.952Z,65.84
2022-08-19T07:24:51.490Z,66.35
2022-08-19T07:25:44.020Z,65.94
2022-08-19T07:26:44.050Z,66.14
2022-08-19T07:27:46.391Z,65.45
2022-08-19T07:28:46.071Z,66.05
2022-08-19T07:29:44.112Z,66.57
2022-08-19T07:30:44.134Z,67.27
2022-08-19T07:31:44.142Z,65.84
2022-08-19T07:32:44.158Z,66.57
2022-08-19T07:33:44.170Z,67.04
2022-08-19T07:34:44.185Z,65.55
2022-08-19T07:35:44.185Z,65.55
2022-08-19T07:36:44.194Z,65.31
2022-08-19T07:37:44.189Z,64.46
2022-08-19T07:38:44.177Z,63.54
2022-08-19T07:39:44.268Z,63.96
2022-08-19T07:40:44.208Z,64.49
2022-08-19T07:41:44.216Z,63.64
2022-08-19T07:42:44.238Z,63.43
2022-08-19T07:43:44.251Z,63.34
2022-08-19T07:44:50.096Z,63.10
2022-08-19T07:45:44.306Z,63.10
2022-08-19T07:46:44.321Z,62.91
2022-08-19T07:47:49.242Z,63.54
2022-08-19T07:48:44.385Z,64.39
2022-08-19T07:49:44.380Z,65.09
2022-08-19T07:50:44.383Z,65.19
2022-08-19T07:51:44.393Z,64.79
2022-08-19T07:52:44.406Z,63.96
2022-08-19T07:53:44.435Z,62.88
2022-08-19T07:54:44.465Z,62.38
2022-08-19T07:55:44.507Z,61.66
2022-08-19T07:56:44.537Z,62.29
2022-08-19T07:58:44.653Z,65.91
2022-08-19T07:59:44.638Z,64.23
2022-08-19T08:00:44.641Z,62.85
2022-08-19T08:01:44.687Z,60.48
2022-08-19T08:02:44.709Z,58.74
2022-08-19T08:03:44.737Z,58.00
2022-08-19T08:04:45.625Z,56.56
2022-08-19T08:05:44.794Z,56.93
2022-08-19T08:06:44.801Z,58.25
2022-08-19T08:07:46.369Z,58.22
2022-08-19T08:08:47.923Z,58.34
2022-08-19T08:09:44.897Z,58.02
2022-08-19T08:10:44.883Z,58.25
2022-08-19T08:11:44.922Z,57.95
2022-08-19T08:12:44.934Z,58.54
2022-08-19T08:13:45.002Z,58.22
2022-08-19T08:14:45.005Z,58.22
2022-08-19T08:15:45.075Z,58.02
2022-08-19T08:16:46.954Z,57.73
2022-08-19T08:17:49.637Z,58.05
2022-08-19T08:18:50.199Z,57.92
2022-08-19T08:19:45.148Z,59.32
2022-08-19T08:20:45.159Z,59.79
2022-08-19T08:21:45.186Z,58.77
2022-08-19T08:22:45.179Z,58.54
2022-08-19T08:23:45.254Z,58.12
2022-08-19T08:24:45.189Z,57.75
2022-08-19T08:25:45.211Z,58.47
2022-08-19T08:26:46.934Z,61.99
2022-08-19T08:27:45.243Z,60.94
2022-08-19T08:28:47.793Z,59.99
2022-08-19T08:29:45.226Z,58.45
2022-08-19T08:30:45.436Z,59.59
2022-08-19T08:31:45.264Z,61.23
2022-08-19T08:32:45.325Z,60.67
2022-08-19T08:33:45.385Z,60.31
2022-08-19T08:34:45.386Z,58.84
2022-08-19T08:35:45.476Z,57.18
2022-08-19T08:36:45.507Z,58.37
2022-08-19T08:37:45.498Z,59.19
2022-08-19T08:38:45.530Z,60.02
2022-08-19T08:39:45.612Z,60.57
2022-08-19T08:40:45.659Z,62.08
2022-08-19T08:41:47.891Z,60.61
2022-08-19T08:42:45.587Z,59.30
2022-08-19T08:43:45.594Z,58.77
2022-08-19T08:44:45.607Z,58.40
2022-08-19T08:45:45.653Z,58.90
2022-08-19T08:46:45.702Z,57.71
2022-08-19T08:47:45.692Z,58.37
2022-08-19T08:48:45.722Z,58.01
2022-08-19T08:49:45.723Z,57.06
2022-08-19T08:50:45.773Z,57.29
2022-08-19T08:51:47.708Z,57.58
2022-08-19T08:52:45.845Z,56.46
2022-08-19T08:53:45.846Z,56.37
2022-08-19T08:54:49.043Z,57.31
2022-08-19T08:55:45.876Z,57.98
2022-08-19T08:56:45.897Z,56.54
2022-08-19T08:57:45.914Z,55.52
2022-08-19T08:58:45.918Z,55.03
2022-08-19T08:59:45.918Z,55.45
2022-08-19T09:00:45.909Z,57.31
2022-08-19T09:01:45.924Z,57.39
2022-08-19T09:02:50.489Z,56.74
2022-08-19T09:03:45.980Z,58.61
2022-08-19T09:04:46.004Z,59.05
2022-08-19T09:05:48.662Z,56.63
2022-08-19T09:06:46.044Z,54.38
2022-08-19T09:07:47.492Z,52.53
2022-08-19T09:08:46.132Z,52.14
2022-08-19T09:09:46.173Z,52.23
2022-08-19T09:10:46.195Z,52.26
2022-08-19T09:11:46.264Z,52.68
2022-08-19T09:12:46.275Z,53.72
2022-08-19T09:13:46.305Z,53.47
2022-08-19T09:14:50.790Z,52.26
2022-08-19T09:15:47.549Z,52.39
2022-08-19T09:16:46.417Z,52.98
2022-08-19T09:17:50.092Z,53.62
2022-08-19T09:18:46.470Z,54.34
2022-08-19T09:19:46.489Z,54.21
2022-08-19T09:20:46.520Z,53.92
2022-08-19T09:21:46.529Z,54.41
2022-08-19T09:22:46.541Z,54.26
2022-08-19T09:23:46.570Z,50.31
2022-08-19T09:24:46.613Z,49.01
2022-08-19T09:25:46.612Z,50.68
2022-08-19T09:26:48.671Z,51.57
2022-08-19T09:27:46.654Z,50.44
2022-08-19T09:28:48.749Z,50.02
2022-08-19T09:29:46.695Z,49.73
2022-08-19T09:30:46.723Z,49.01
2022-08-19T09:31:46.745Z,48.89
2022-08-19T09:32:46.943Z,47.69
2022-08-19T09:33:46.725Z,48.18
2022-08-19T09:34:50.853Z,48.15
2022-08-19T09:35:53.188Z,46.95
2022-08-19T09:36:46.787Z,47.09
2022-08-19T09:37:46.787Z,48.42
2022-08-19T09:38:46.839Z,48.71
2022-08-19T09:39:46.919Z,47.66
2022-08-19T09:40:46.879Z,46.24
2022-08-19T09:41:47.458Z,45.57
2022-08-19T09:42:49.950Z,46.62
2022-08-19T09:43:48.037Z,47.73
2022-08-19T09:44:46.882Z,48.25
2022-08-19T09:45:46.891Z,48.03
2022-08-19T09:46:46.912Z,47.83
2022-08-19T09:47:47.361Z,47.92
2022-08-19T09:48:46.963Z,47.92
2022-08-19T09:49:47.024Z,47.73
2022-08-19T09:50:52.055Z,49.77
2022-08-19T09:51:51.045Z,48.91
2022-08-19T09:52:55.666Z,47.98
2022-08-19T09:53:47.128Z,47.36
2022-08-19T09:54:47.147Z,47.71
2022-08-19T09:55:47.167Z,47.63
2022-08-19T09:56:47.167Z,49.28
2022-08-19T09:57:47.234Z,50.51
2022-08-19T09:58:47.239Z,52.78
2022-08-19T09:59:47.299Z,52.83
2022-08-19T10:00:51.034Z,52.06
2022-08-19T10:01:47.316Z,49.69
2022-08-19T10:02:47.327Z,50.83
2022-08-19T10:03:47.361Z,49.52
2022-08-19T10:04:47.420Z,46.90
2022-08-19T10:05:48.402Z,48.59
2022-08-19T10:06:51.790Z,49.62
2022-08-19T10:07:47.483Z,49.72
2022-08-19T10:08:50.416Z,47.97
2022-08-19T10:09:47.513Z,47.26
2022-08-19T10:10:47.505Z,46.18
2022-08-19T10:11:54.004Z,47.89
2022-08-19T10:12:48.827Z,48.88
2022-08-19T10:13:47.547Z,48.36
2022-08-19T10:14:47.558Z,47.72
2022-08-19T10:15:49.436Z,47.28
2022-08-19T10:16:47.621Z,49.01
2022-08-19T10:17:55.032Z,48.93
2022-08-19T10:18:49.601Z,47.87
2022-08-19T10:19:53.852Z,46.62
2022-08-19T10:20:51.661Z,45.29
2022-08-19T10:21:47.818Z,45.41
2022-08-19T10:22:47.824Z,45.73
2022-08-19T10:23:47.862Z,46.00
2022-08-19T10:24:47.872Z,45.78
2022-08-19T10:25:48.310Z,45.98
2022-08-19T10:26:47.973Z,45.19
2022-08-19T10:27:51.448Z,45.27
2022-08-19T10:28:48.034Z,44.90
2022-08-19T10:29:48.034Z,45.76
2022-08-19T10:30:48.052Z,44.66
2022-08-19T10:32:02.719Z,44.46
2022-08-19T10:32:48.067Z,44.88
2022-08-19T10:33:53.526Z,46.25
2022-08-19T10:34:49.184Z,44.56
2022-08-19T10:35:56.809Z,45.45
2022-08-19T10:36:53.848Z,44.81
2022-08-19T10:37:56.899Z,44.42
2022-08-19T10:38:52.336Z,44.73
2022-08-19T10:39:48.293Z,45.25
2022-08-19T10:40:48.321Z,45.23
2022-08-19T10:41:48.331Z,45.86
2022-08-19T10:42:48.392Z,46.37
2022-08-19T10:43:48.404Z,45.59
2022-08-19T10:44:48.431Z,46.10
2022-08-19T10:45:52.354Z,48.07
2022-08-19T10:46:48.969Z,49.32
2022-08-19T10:47:48.515Z,50.95
2022-08-19T10:48:48.544Z,49.79
2022-08-19T10:49:48.625Z,49.45
2022-08-19T10:50:48.625Z,48.91
2022-08-19T10:51:48.787Z,47.38
2022-08-19T10:52:49.910Z,45.49
2022-08-19T10:53:48.667Z,46.40
2022-08-19T10:54:48.751Z,45.88
2022-08-19T10:55:48.736Z,45.98
2022-08-19T10:56:48.789Z,46.74
2022-08-19T10:58:04.382Z,47.65
2022-08-19T10:58:48.899Z,48.41
2022-08-19T10:59:48.990Z,48.44
2022-08-19T11:00:49.034Z,48.04
2022-08-19T11:01:49.059Z,47.94
2022-08-19T11:02:49.089Z,48.22
2022-08-19T11:03:49.092Z,47.38
2022-08-19T11:04:49.173Z,46.06
2022-08-19T11:05:49.154Z,45.15
2022-08-19T11:06:49.174Z,44.42
2022-08-19T11:07:49.210Z,43.22
2022-08-19T11:08:49.194Z,43.90
2022-08-19T11:09:49.223Z,43.08
2022-08-19T11:10:50.365Z,43.29
2022-08-19T11:11:49.245Z,44.54
2022-08-19T11:12:49.286Z,45.54
2022-08-19T11:13:49.285Z,45.35
2022-08-19T11:14:49.360Z,44.52
2022-08-19T11:15:49.418Z,45.27
2022-08-19T11:16:49.479Z,45.74
2022-08-19T11:17:49.635Z,44.76
2022-08-19T11:18:49.541Z,45.15
2022-08-19T11:19:49.588Z,46.77
2022-08-19T11:20:49.630Z,46.08
2022-08-19T11:21:49.634Z,46.89
2022-08-19T11:22:49.676Z,47.01
2022-08-19T11:23:49.671Z,47.01
2022-08-19T11:24:49.720Z,46.99
2022-08-19T11:25:49.745Z,46.69
2022-08-19T11:26:49.734Z,46.18
2022-08-19T11:27:49.869Z,46.08
2022-08-19T11:28:49.775Z,46.28
2022-08-19T11:29:49.813Z,46.57
2022-08-19T11:30:49.856Z,46.28
2022-08-19T11:31:49.867Z,45.86
2022-08-19T11:32:49.930Z,46.20
2022-08-19T11:33:49.947Z,48.96
2022-08-19T11:34:50.009Z,48.56
2022-08-19T11:35:50.066Z,49.08
2022-08-19T11:36:50.118Z,49.01
2022-08-19T11:37:50.157Z,48.44
2022-08-19T11:38:50.110Z,47.43
2022-08-19T11:39:53.398Z,47.53
2022-08-19T11:40:50.152Z,46.91
2022-08-19T11:41:50.151Z,47.06
2022-08-19T11:42:50.214Z,47.03
2022-08-19T11:43:50.193Z,47.87
2022-08-19T11:44:50.242Z,48.41
2022-08-19T11:45:50.285Z,49.64
2022-08-19T11:46:50.362Z,50.66
2022-08-19T11:47:50.422Z,49.82
2022-08-19T11:48:50.413Z,48.66
2022-08-19T11:49:50.824Z,46.44
2022-08-19T11:50:50.625Z,45.61
2022-08-19T11:51:50.735Z,45.49
2022-08-19T11:52:50.517Z,45.39
2022-08-19T11:53:50.720Z,45.81
2022-08-19T11:54:50.598Z,44.95
2022-08-19T11:55:51.035Z,44.54
2022-08-19T11:56:50.615Z,45.17
2022-08-19T11:57:50.718Z,46.40
2022-08-19T11:58:50.689Z,46.59
2022-08-19T11:59:50.753Z,46.64
2022-08-19T12:00:50.795Z,47.50
2022-08-19T12:01:50.821Z,48.21
2022-08-19T12:02:50.987Z,48.33
2022-08-19T12:03:50.975Z,48.75
2022-08-19T12:04:50.924Z,49.37
2022-08-19T12:05:50.984Z,49.47
2022-08-19T12:06:50.987Z,49.10
2022-08-19T12:07:50.973Z,49.02
2022-08-19T12:08:51.017Z,48.80
2022-08-19T12:09:51.117Z,47.32
2022-08-19T12:10:51.102Z,45.18
2022-08-19T12:11:51.077Z,44.35
2022-08-19T12:12:58.009Z,44.69
2022-08-19T12:13:51.222Z,45.67
2022-08-19T12:14:51.198Z,46.07
2022-08-19T12:15:51.286Z,45.18
2022-08-19T12:16:52.607Z,44.81
2022-08-19T12:17:51.339Z,45.50
2022-08-19T12:18:51.290Z,43.76
2022-08-19T12:19:51.330Z,43.84
2022-08-19T12:20:51.340Z,43.27
2022-08-19T12:21:51.393Z,43.66
2022-08-19T12:22:51.600Z,43.64
2022-08-19T12:23:55.190Z,44.15
2022-08-19T12:24:51.448Z,43.34
2022-08-19T12:25:51.604Z,43.42
2022-08-19T12:26:53.025Z,43.23
2022-08-19T12:27:57.300Z,43.52
2022-08-19T12:28:51.637Z,43.40
2022-08-19T12:29:51.778Z,42.83
2022-08-19T12:30:51.728Z,43.03
2022-08-19T12:31:51.648Z,42.71
2022-08-19T12:32:51.668Z,42.28
2022-08-19T12:33:51.889Z,42.06
2022-08-19T12:34:51.783Z,40.78
2022-08-19T12:35:51.794Z,41.78
2022-08-19T12:36:51.851Z,41.78
2022-08-19T12:37:56.696Z,41.22
2022-08-19T12:38:51.853Z,40.51
2022-08-19T12:39:51.902Z,41.22
2022-08-19T12:40:51.880Z,40.90
2022-08-19T12:41:54.633Z,40.09
2022-08-19T12:42:51.923Z,40.06
2022-08-19T12:43:52.044Z,39.15
2022-08-19T12:44:51.932Z,39.66
2022-08-19T12:45:51.955Z,40.48
2022-08-19T12:46:53.845Z,41.80
2022-08-19T12:47:54.997Z,42.32
2022-08-19T12:48:55.355Z,42.52
2022-08-19T12:49:55.521Z,43.08
2022-08-19T12:50:52.125Z,42.57
2022-08-19T12:51:52.240Z,42.33
2022-08-19T12:52:52.807Z,41.72
2022-08-19T12:53:52.168Z,40.33
2022-08-19T12:54:54.704Z,39.80